MOL Marvel — V7UP3 — position and weather

sailwx.info

Track history (hours):
 
Tides and Currents Weather Stations Pressure Air Temp Water Temp Dewpoint Dewpoint Depression Visibility Wind Speed Wind Dir Waves Ship Positions

MOL Marvel

Last reported at 2018-Jun-18 14:09 UTC. Time now 2018-Jun-19 10:53 UTC.
Position N 30°35' E 122°07'.

Length 302 m; draft 7.1 m.

Type: Ship (hazmat cat A). MMSI: 538003993.

Date/timePositionNaut miles runAvg speedWind from/ knotsBaromVisibWave heightAir tempDewpointWater temp
2018-Jun-18 14:09N 30°35' E 122°07'2 8.8
2018-Jun-18 13:58N 30°36' E 122°05'0 0.2
2018-Jun-18 12:00N 30°36' E 122°05'0 0.0
2018-Jun-18 08:42N 30°36' E 122°05'0 0.0
2018-Jun-18 08:18N 30°36' E 122°05'0 0.0
2018-Jun-18 05:06N 30°36' E 122°05'0 0.0
2018-Jun-18 02:01N 30°36' E 122°05'0 0.0
2018-Jun-18 02:01N 30°36' E 122°05'1 1.6
2018-Jun-18 01:30N 30°36' E 122°06'5 8.8
2018-Jun-18 00:55N 30°34' E 122°11'  
2018-Jun-13 19:48N 33°59' E 134°54'413.1
2018-Jun-13 19:30N 34°03' E 134°55'713.6
2018-Jun-13 19:00N 34°10' E 134°57'612.6
2018-Jun-13 18:30N 34°16' E 134°58'815.5
2018-Jun-13 18:00N 34°23' E 135°02'1020.7
2018-Jun-13 17:30N 34°30' E 135°11'816.9
2018-Jun-13 17:00N 34°38' E 135°16'2 4.7
2018-Jun-13 16:30N 34°39' E 135°15'0 0.0
2018-Jun-13 16:00N 34°39' E 135°15'0 0.0
2018-Jun-13 15:30N 34°39' E 135°15'0 0.0
2018-Jun-13 15:00N 34°39' E 135°15'0 0.0
2018-Jun-13 14:30N 34°39' E 135°15'0 0.0
2018-Jun-13 14:00N 34°39' E 135°15'0 0.0
2018-Jun-13 13:30N 34°39' E 135°15'0 0.0
2018-Jun-13 12:57N 34°39' E 135°15'0 0.0
2018-Jun-13 12:30N 34°39' E 135°15'0 0.0
2018-Jun-13 12:00N 34°39' E 135°15'0 0.0
2018-Jun-13 11:30N 34°39' E 135°15'0 0.0
2018-Jun-13 10:57N 34°39' E 135°15'0 0.0
2018-Jun-13 10:27N 34°39' E 135°15'0 0.0
2018-Jun-13 10:00N 34°39' E 135°15'0 0.0
2018-Jun-13 09:30N 34°39' E 135°15'0 0.1
2018-Jun-13 09:00N 34°39' E 135°15'1 2.7
2018-Jun-13 08:30N 34°39' E 135°16'2 4.7
2018-Jun-13 08:00N 34°36' E 135°16'4 7.8
2018-Jun-13 07:30N 34°33' E 135°15'612.7
2018-Jun-13 07:01N 34°28' E 135°09'918.0
2018-Jun-13 06:31N 34°21' E 135°02'815.9
2018-Jun-13 06:00N 34°14' E 134°59'510.8
2018-Jun-13 05:30N 34°08' E 134°59'5 9.5
2018-Jun-13 05:00N 34°04' E 134°59'5 9.7
2018-Jun-13 04:30N 33°59' E 134°59'4 7.2
2018-Jun-13 04:01N 33°55' E 134°59'713.4
2018-Jun-13 03:30N 33°48' E 134°59'816.5
2018-Jun-13 03:00N 33°41' E 135°03'917.8
2018-Jun-13 02:30N 33°35' E 135°11'24019.8
2018-Jun-12 14:23N 35°03' E 139°42'816.7
2018-Jun-12 13:54N 35°11' E 139°45'410.2
2018-Jun-12 13:30N 35°15' E 139°46'612.4
2018-Jun-12 13:00N 35°20' E 139°43'713.6
2018-Jun-12 12:30N 35°26' E 139°46'714.9
2018-Jun-12 12:01N 35°33' E 139°51'510.2
2018-Jun-12 11:29N 35°36' E 139°46'0 0.6
2018-Jun-12 11:00N 35°36' E 139°46'0 0.0
2018-Jun-12 10:30N 35°36' E 139°46'0 0.0
2018-Jun-12 10:00N 35°36' E 139°46'0 0.0
2018-Jun-12 09:30N 35°36' E 139°46'0 0.0
2018-Jun-12 09:00N 35°36' E 139°46'0 0.0
2018-Jun-12 08:27N 35°36' E 139°46'0 0.0
2018-Jun-12 07:57N 35°36' E 139°46'0 0.0
2018-Jun-12 07:24N 35°36' E 139°46'0 0.0
2018-Jun-12 07:00N 35°36' E 139°46'0 0.0
2018-Jun-12 05:24N 35°36' E 139°46'0 0.0
2018-Jun-12 05:00N 35°36' E 139°46'0 0.0
2018-Jun-12 04:21N 35°36' E 139°46'0 0.0
2018-Jun-12 04:00N 35°36' E 139°46'0 0.0
2018-Jun-12 03:27N 35°36' E 139°46'0 0.0
2018-Jun-12 02:54N 35°36' E 139°46'0 0.0
2018-Jun-12 02:30N 35°36' E 139°46'0 0.0
2018-Jun-12 01:57N 35°36' E 139°46'0 0.0
2018-Jun-12 01:27N 35°36' E 139°46'0 0.0
2018-Jun-12 00:57N 35°36' E 139°46'0 0.0
2018-Jun-12 00:30N 35°36' E 139°46'0 0.0
2018-Jun-11 23:57N 35°36' E 139°46'0 0.0
2018-Jun-11 23:30N 35°36' E 139°46'0 0.2
2018-Jun-11 23:00N 35°36' E 139°46'2 3.7
2018-Jun-11 22:31N 35°35' E 139°48'4 8.6
2018-Jun-11 22:00N 35°32' E 139°52'612.1
2018-Jun-11 21:30N 35°27' E 139°49'713.5
2018-Jun-11 21:00N 35°21' E 139°45'611.5
2018-Jun-11 20:30N 35°15' E 139°47'611.4
2018-Jun-11 20:01N 35°10' E 139°47'4 7.6
2018-Jun-11 19:30N 35°06' E 139°45'4 7.7
2018-Jun-11 19:00N 35°02' E 139°44'  
Track history (hours):
 
Tides and Currents Weather Stations Pressure Air Temp Water Temp Dewpoint Dewpoint Depression Visibility Wind Speed Wind Dir Waves Ship Positions

MOL Marvel

Last reported at 2018-Jun-18 14:09 UTC. Time now 2018-Jun-19 10:53 UTC.
Position N 30°35' E 122°07'.

Length 302 m; draft 7.1 m.

Type: Ship (hazmat cat A). MMSI: 538003993.

Date/timePositionNaut miles runAvg speedWind from/ knotsBaromVisibWave heightAir tempDewpointWater temp
2018-Jun-18 14:09N 30°35' E 122°07'2 8.8
2018-Jun-18 13:58N 30°36' E 122°05'0 0.2
2018-Jun-18 12:00N 30°36' E 122°05'0 0.0
2018-Jun-18 08:42N 30°36' E 122°05'0 0.0
2018-Jun-18 08:18N 30°36' E 122°05'0 0.0
2018-Jun-18 05:06N 30°36' E 122°05'0 0.0
2018-Jun-18 02:01N 30°36' E 122°05'0 0.0
2018-Jun-18 02:01N 30°36' E 122°05'1 1.6
2018-Jun-18 01:30N 30°36' E 122°06'5 8.8
2018-Jun-18 00:55N 30°34' E 122°11'  
2018-Jun-13 19:48N 33°59' E 134°54'413.1
2018-Jun-13 19:30N 34°03' E 134°55'713.6
2018-Jun-13 19:00N 34°10' E 134°57'612.6
2018-Jun-13 18:30N 34°16' E 134°58'815.5
2018-Jun-13 18:00N 34°23' E 135°02'1020.7
2018-Jun-13 17:30N 34°30' E 135°11'816.9
2018-Jun-13 17:00N 34°38' E 135°16'2 4.7
2018-Jun-13 16:30N 34°39' E 135°15'0 0.0
2018-Jun-13 16:00N 34°39' E 135°15'0 0.0
2018-Jun-13 15:30N 34°39' E 135°15'0 0.0
2018-Jun-13 15:00N 34°39' E 135°15'0 0.0
2018-Jun-13 14:30N 34°39' E 135°15'0 0.0
2018-Jun-13 14:00N 34°39' E 135°15'0 0.0
2018-Jun-13 13:30N 34°39' E 135°15'0 0.0
2018-Jun-13 12:57N 34°39' E 135°15'0 0.0
2018-Jun-13 12:30N 34°39' E 135°15'0 0.0
2018-Jun-13 12:00N 34°39' E 135°15'0 0.0
2018-Jun-13 11:30N 34°39' E 135°15'0 0.0
2018-Jun-13 10:57N 34°39' E 135°15'0 0.0
2018-Jun-13 10:27N 34°39' E 135°15'0 0.0
2018-Jun-13 10:00N 34°39' E 135°15'0 0.0
2018-Jun-13 09:30N 34°39' E 135°15'0 0.1
2018-Jun-13 09:00N 34°39' E 135°15'1 2.7
2018-Jun-13 08:30N 34°39' E 135°16'2 4.7
2018-Jun-13 08:00N 34°36' E 135°16'4 7.8
2018-Jun-13 07:30N 34°33' E 135°15'612.7
2018-Jun-13 07:01N 34°28' E 135°09'918.0
2018-Jun-13 06:31N 34°21' E 135°02'815.9
2018-Jun-13 06:00N 34°14' E 134°59'510.8
2018-Jun-13 05:30N 34°08' E 134°59'5 9.5
2018-Jun-13 05:00N 34°04' E 134°59'5 9.7
2018-Jun-13 04:30N 33°59' E 134°59'4 7.2
2018-Jun-13 04:01N 33°55' E 134°59'713.4
2018-Jun-13 03:30N 33°48' E 134°59'816.5
2018-Jun-13 03:00N 33°41' E 135°03'917.8
2018-Jun-13 02:30N 33°35' E 135°11'24019.8
2018-Jun-12 14:23N 35°03' E 139°42'816.7
2018-Jun-12 13:54N 35°11' E 139°45'410.2
2018-Jun-12 13:30N 35°15' E 139°46'612.4
2018-Jun-12 13:00N 35°20' E 139°43'713.6
2018-Jun-12 12:30N 35°26' E 139°46'714.9
2018-Jun-12 12:01N 35°33' E 139°51'510.2
2018-Jun-12 11:29N 35°36' E 139°46'0 0.6
2018-Jun-12 11:00N 35°36' E 139°46'0 0.0
2018-Jun-12 10:30N 35°36' E 139°46'0 0.0
2018-Jun-12 10:00N 35°36' E 139°46'0 0.0
2018-Jun-12 09:30N 35°36' E 139°46'0 0.0
2018-Jun-12 09:00N 35°36' E 139°46'0 0.0
2018-Jun-12 08:27N 35°36' E 139°46'0 0.0
2018-Jun-12 07:57N 35°36' E 139°46'0 0.0
2018-Jun-12 07:24N 35°36' E 139°46'0 0.0
2018-Jun-12 07:00N 35°36' E 139°46'0 0.0
2018-Jun-12 05:24N 35°36' E 139°46'0 0.0
2018-Jun-12 05:00N 35°36' E 139°46'0 0.0
2018-Jun-12 04:21N 35°36' E 139°46'0 0.0
2018-Jun-12 04:00N 35°36' E 139°46'0 0.0
2018-Jun-12 03:27N 35°36' E 139°46'0 0.0
2018-Jun-12 02:54N 35°36' E 139°46'0 0.0
2018-Jun-12 02:30N 35°36' E 139°46'0 0.0
2018-Jun-12 01:57N 35°36' E 139°46'0 0.0
2018-Jun-12 01:27N 35°36' E 139°46'0 0.0
2018-Jun-12 00:57N 35°36' E 139°46'0 0.0
2018-Jun-12 00:30N 35°36' E 139°46'0 0.0
2018-Jun-11 23:57N 35°36' E 139°46'0 0.0
2018-Jun-11 23:30N 35°36' E 139°46'0 0.2
2018-Jun-11 23:00N 35°36' E 139°46'2 3.7
2018-Jun-11 22:31N 35°35' E 139°48'4 8.6
2018-Jun-11 22:00N 35°32' E 139°52'612.1
2018-Jun-11 21:30N 35°27' E 139°49'713.5
2018-Jun-11 21:00N 35°21' E 139°45'611.5
2018-Jun-11 20:30N 35°15' E 139°47'611.4
2018-Jun-11 20:01N 35°10' E 139°47'4 7.6
2018-Jun-11 19:30N 35°06' E 139°45'4 7.7
2018-Jun-11 19:00N 35°02' E 139°44'  

Dump ship's entire track history